Hovedside
METAR-TAF:

METAR-TAF

Lufthavner :

Berlevåg lufthavn

Berlevåg, Norge

breddegrad: 70-52N, lengdegrad: 029-02E, høyde over havet: 1 m

Gjeldene værobservasjon

Denne rapporten ble laget for 20 timer og 51 minutter siden, klokken 20:50 UTC
Vind 20 kt fra Vest-nordvest
Temperatur 7°C
Luftfuktighet 87%
Trykk 1014 hPa
Sikt 10 km eller mer
Få skyer i en høyde av 3000 ft
Brutte skyer i en høyde av 7000 ft

METAR: ENBV 252050Z 29020KT 9999 FEW030 BKN070 07/05 Q1014

Tid: 19:41 (17:41 UTC)


TAF: fraværende

Værobservasjoner og værvarsel for over 4000 flyplasser (METAR- og TAF-rapporter).

Tilgjengelige stasjoner er representert av de røde og gule prikkene på kartet.

Hold musepekeren over prikken for å se navnet på stasjonen.

Klikk så for å se værobservasjoner og -varsler.

For å forandre kartet kan du klikke på den grønne knappen med svart kryss for å zoome inn, på den grønne knappen med strek for å zoome ut, eller på de grønne pilene for å se tilstøtende kart.


METAR-TAF: